Airfield :
LOGIN :

Register | Disclaimer

   EN    FR    IT 

 










Legend :    VFR   Marginal VFR   IFR   Intensive IFR   Very Intensive IFR
Visi :
Ceiling :
>= 8 km
>= 3000ft
5 to 8 km
1000 to 3000 ft
1500m to 5 km
500 to 1000 ft
800 to 1500m
200 to 500 ft
< 800m
< 200 ft
Symbols :   Thunderstorms  Fog  Heavy snow  Heavy precipitations  Wind > 20 kt
SIGMETs :     Misc.  Thunderstorms  Icing  Turbulence  Mountain Waves  Volcanic Ashes






- Airport Elevation : 992 ft


LIRV - Roma Viterbo Air Force Base (military)

EXPIRED METARs :
  • 041855Z 18014KT 5000 -TSRA BR SCT010 FEW015CB BKN017 15/14 Q1003 RMK OVC MON E SE INVIS NC VIS MIN 5000 WIND THR04 /////KT WHT

TAF TAF LIRV
Valid from the 04 at 15:00 until the 05 at 00:00 UTC


041400Z 0415/0424 18018KT 9999 SCT030
TEMPO 0415/0418 18022G35KT
TEMPO 0415/0421 5000 SHRA FEW020CB BKN030
TEMPO 0421/0424 3000 TSRA FEW020CB BKN025



MET'MAP, your aeronautical weather chart ! - Copyright ORBIFLY December 2007 - Disclaimer

ORBIFLY MET'MAP TEAM :

Programming & Development : Alexandra Zaïnal
Concept & original design : Baudouin d'Aumeries
Assistance for programming : Marc-Olivier Méhu
Technical & hardware support : Manuel Goepfert

Contact : metmap@orbifly.com




SOURCES & CREDITS :

   NOAA